createdAt,value
2022-10-24T00:00:49.010Z,2.03
2022-10-24T00:03:15.875Z,2.13
2022-10-24T00:05:43.335Z,2.28
2022-10-24T00:08:09.723Z,2.50
2022-10-24T00:10:36.908Z,2.13
2022-10-24T00:13:03.552Z,2.08
2022-10-24T00:15:30.170Z,2.55
2022-10-24T00:17:56.390Z,1.90
2022-10-24T00:20:22.651Z,2.30
2022-10-24T00:22:48.859Z,1.90
2022-10-24T00:25:15.984Z,2.03
2022-10-24T00:27:42.234Z,2.17
2022-10-24T00:30:08.817Z,2.10
2022-10-24T00:32:35.059Z,2.25
2022-10-24T00:35:01.319Z,1.55
2022-10-24T00:37:27.539Z,2.30
2022-10-24T00:39:53.768Z,1.90
2022-10-24T00:42:20.081Z,2.15
2022-10-24T00:44:46.976Z,1.58
2022-10-24T00:47:15.792Z,2.00
2022-10-24T00:49:41.985Z,1.90
2022-10-24T00:52:09.572Z,2.10
2022-10-24T00:54:38.072Z,2.10
2022-10-24T00:57:11.399Z,1.92
2022-10-24T00:59:38.435Z,2.00
2022-10-24T01:02:04.730Z,2.00
2022-10-24T01:04:30.978Z,2.45
2022-10-24T01:06:59.979Z,1.80
2022-10-24T01:09:58.840Z,1.90
2022-10-24T01:12:37.305Z,1.95
2022-10-24T01:15:09.317Z,1.70
2022-10-24T01:17:40.895Z,1.48
2022-10-24T01:20:22.994Z,1.70
2022-10-24T01:23:11.027Z,1.95
2022-10-24T01:25:46.445Z,1.90
2022-10-24T01:28:18.294Z,1.50
2022-10-24T01:30:47.919Z,1.88
2022-10-24T01:33:15.836Z,2.08
2022-10-24T01:35:47.887Z,1.77
2022-10-24T01:38:23.232Z,1.67
2022-10-24T01:40:51.945Z,1.67
2022-10-24T01:43:21.010Z,1.70
2022-10-24T01:45:50.452Z,1.75
2022-10-24T01:48:19.054Z,1.95
2022-10-24T01:50:47.163Z,2.00
2022-10-24T01:53:14.373Z,1.95
2022-10-24T01:55:41.085Z,1.85
2022-10-24T01:58:08.045Z,1.58
2022-10-24T02:00:34.966Z,1.60
2022-10-24T02:03:03.483Z,2.17
2022-10-24T02:05:32.451Z,1.77
2022-10-24T02:08:02.403Z,1.88
2022-10-24T02:10:30.696Z,1.52
2022-10-24T02:12:59.998Z,1.85
2022-10-24T02:15:29.127Z,1.73
2022-10-24T02:17:56.385Z,2.03
2022-10-24T02:20:26.585Z,2.00
2022-10-24T02:22:58.982Z,2.33
2022-10-24T02:25:27.101Z,1.60
2022-10-24T02:27:55.808Z,1.50
2022-10-24T02:30:23.493Z,2.17
2022-10-24T02:32:55.119Z,1.70
2022-10-24T02:35:24.072Z,1.65
2022-10-24T02:37:52.844Z,1.60
2022-10-24T02:40:20.061Z,1.50
2022-10-24T02:42:47.687Z,1.77
2022-10-24T02:45:15.211Z,2.38
2022-10-24T02:47:42.859Z,1.95
2022-10-24T02:50:09.690Z,1.75
2022-10-24T02:52:37.160Z,1.70
2022-10-24T02:55:03.535Z,2.25
2022-10-24T02:57:29.828Z,1.88
2022-10-24T02:59:56.034Z,1.60
2022-10-24T03:02:22.559Z,2.03
2022-10-24T03:04:48.963Z,1.33
2022-10-24T03:07:15.532Z,1.50
2022-10-24T03:09:41.876Z,1.88
2022-10-24T03:12:08.206Z,1.52
2022-10-24T03:14:34.502Z,1.55
2022-10-24T03:17:00.713Z,1.65
2022-10-24T03:19:26.926Z,2.25
2022-10-24T03:21:53.171Z,1.48
2022-10-24T03:24:26.874Z,1.35
2022-10-24T03:27:03.542Z,1.25
2022-10-24T03:29:29.850Z,1.63
2022-10-24T03:31:56.063Z,1.30
2022-10-24T03:34:22.375Z,1.77
2022-10-24T03:36:48.596Z,1.45
2022-10-24T03:39:14.995Z,1.30
2022-10-24T03:41:41.204Z,1.27
2022-10-24T03:44:07.502Z,1.40
2022-10-24T03:46:33.720Z,1.23
2022-10-24T03:51:31.123Z,1.52
2022-10-24T03:53:57.435Z,1.20
2022-10-24T03:56:23.676Z,1.15
2022-10-24T03:58:50.042Z,1.45
2022-10-24T04:01:18.372Z,1.27
2022-10-24T04:03:47.513Z,1.27
2022-10-24T04:06:13.772Z,1.10
2022-10-24T04:08:40.019Z,0.93
2022-10-24T04:11:06.331Z,1.33
2022-10-24T04:13:32.576Z,1.10
2022-10-24T04:15:58.802Z,1.15
2022-10-24T04:18:25.310Z,1.00
2022-10-24T04:20:51.734Z,0.98
2022-10-24T04:23:18.003Z,1.10
2022-10-24T04:25:44.369Z,1.52
2022-10-24T04:28:10.646Z,0.98
2022-10-24T04:30:36.954Z,1.15
2022-10-24T04:33:03.224Z,0.85
2022-10-24T04:35:29.462Z,1.05
2022-10-24T04:37:55.676Z,1.10
2022-10-24T04:40:22.128Z,0.90
2022-10-24T04:42:48.396Z,1.08
2022-10-24T04:45:14.744Z,0.95
2022-10-24T04:47:40.954Z,1.42
2022-10-24T04:50:07.491Z,0.93
2022-10-24T04:52:33.756Z,1.00
2022-10-24T04:55:00.090Z,1.50
2022-10-24T04:57:26.306Z,0.90
2022-10-24T04:59:52.664Z,0.98
2022-10-24T05:02:18.927Z,0.90
2022-10-24T05:04:45.420Z,0.85
2022-10-24T05:07:11.652Z,1.00
2022-10-24T05:09:37.921Z,1.10
2022-10-24T05:12:04.786Z,1.08
2022-10-24T05:14:31.112Z,1.00
2022-10-24T05:16:57.505Z,1.17
2022-10-24T05:19:23.743Z,1.00
2022-10-24T05:21:49.974Z,0.90
2022-10-24T05:24:16.229Z,0.88
2022-10-24T05:26:42.450Z,1.00
2022-10-24T05:29:08.770Z,1.20
2022-10-24T05:31:35.058Z,1.35
2022-10-24T05:34:01.482Z,1.10
2022-10-24T05:36:27.794Z,0.82
2022-10-24T05:38:54.098Z,0.90
2022-10-24T05:41:20.341Z,0.93
2022-10-24T05:43:46.836Z,1.13
2022-10-24T05:46:13.085Z,1.00
2022-10-24T05:48:39.383Z,1.00
2022-10-24T05:51:05.720Z,1.10
2022-10-24T05:53:32.051Z,1.27
2022-10-24T05:55:58.270Z,0.88
2022-10-24T05:58:24.933Z,1.10
2022-10-24T06:00:53.961Z,1.15
2022-10-24T06:03:20.653Z,1.30
2022-10-24T06:05:46.873Z,0.93
2022-10-24T06:08:13.104Z,1.15
2022-10-24T06:10:39.372Z,1.08
2022-10-24T06:13:05.590Z,1.00
2022-10-24T06:15:31.888Z,1.00
2022-10-24T06:17:58.107Z,1.10
2022-10-24T06:20:24.442Z,0.98
2022-10-24T06:22:50.701Z,1.10
2022-10-24T06:25:17.374Z,1.35
2022-10-24T06:27:43.632Z,0.95
2022-10-24T06:30:10.671Z,1.10
2022-10-24T06:32:38.534Z,1.08
2022-10-24T06:35:07.378Z,0.90
2022-10-24T06:37:33.696Z,1.02
2022-10-24T06:40:00.046Z,1.85
2022-10-24T06:42:26.332Z,1.10
2022-10-24T06:44:52.671Z,1.33
2022-10-24T06:47:18.966Z,0.80
2022-10-24T06:49:45.376Z,1.00
2022-10-24T06:52:11.602Z,1.23
2022-10-24T06:54:39.024Z,1.08
2022-10-24T06:57:05.227Z,1.20
2022-10-24T06:59:31.646Z,1.10
2022-10-24T07:02:01.722Z,0.98
2022-10-24T07:04:31.379Z,1.00
2022-10-24T07:06:57.631Z,1.10
2022-10-24T07:09:23.947Z,1.30
2022-10-24T07:11:50.211Z,1.08
2022-10-24T07:14:16.526Z,1.13
2022-10-24T07:16:43.363Z,1.10
2022-10-24T07:19:10.213Z,1.35
2022-10-24T07:21:36.485Z,0.85
2022-10-24T07:24:03.627Z,1.65
2022-10-24T07:26:30.551Z,1.40
2022-10-24T07:28:59.012Z,1.08
2022-10-24T07:31:26.001Z,1.25
2022-10-24T07:33:52.873Z,1.48
2022-10-24T07:36:20.212Z,1.30
2022-10-24T07:38:47.330Z,1.10
2022-10-24T07:41:13.761Z,1.40
2022-10-24T07:43:40.591Z,0.88
2022-10-24T07:46:07.858Z,1.58
2022-10-24T07:48:34.275Z,1.60
2022-10-24T07:51:04.405Z,1.10
2022-10-24T07:53:30.641Z,1.17
2022-10-24T07:55:57.944Z,1.10
2022-10-24T07:58:24.160Z,1.10
2022-10-24T08:00:50.412Z,1.08
2022-10-24T08:03:16.619Z,1.33
2022-10-24T08:05:42.862Z,1.10
2022-10-24T08:08:31.021Z,1.20
2022-10-24T08:10:55.528Z,1.10
2022-10-24T08:13:21.830Z,1.30
2022-10-24T08:15:48.035Z,1.48
2022-10-24T08:18:14.589Z,0.77
2022-10-24T08:20:40.833Z,1.15
2022-10-24T08:23:07.068Z,1.20
2022-10-24T08:25:33.383Z,0.95
2022-10-24T08:28:00.899Z,0.88
2022-10-24T08:30:29.126Z,1.35
2022-10-24T08:32:55.395Z,1.20
2022-10-24T08:35:21.964Z,1.27
2022-10-24T08:37:48.184Z,1.20
2022-10-24T08:40:16.364Z,0.90
2022-10-24T08:42:43.155Z,0.85
2022-10-24T08:45:15.739Z,1.40
2022-10-24T08:47:48.553Z,1.30
2022-10-24T08:50:17.592Z,1.35
2022-10-24T08:52:46.897Z,1.02
2022-10-24T08:55:44.404Z,0.95
2022-10-24T08:58:05.862Z,1.08
2022-10-24T09:00:41.244Z,1.30
2022-10-24T09:03:51.153Z,1.00
2022-10-24T09:06:20.135Z,1.20
2022-10-24T09:08:58.076Z,1.08
2022-10-24T09:11:42.391Z,1.20
2022-10-24T09:14:15.800Z,1.20
2022-10-24T09:16:42.882Z,1.02
2022-10-24T09:19:16.526Z,1.05
2022-10-24T09:21:43.327Z,1.00
2022-10-24T09:24:24.931Z,1.00
2022-10-24T09:26:51.155Z,1.23
2022-10-24T09:29:17.464Z,0.95
2022-10-24T09:31:43.702Z,1.30
2022-10-24T09:34:11.220Z,0.82
2022-10-24T09:36:39.013Z,1.20
2022-10-24T09:39:25.813Z,1.17
2022-10-24T09:41:52.213Z,0.80
2022-10-24T09:44:30.542Z,0.95
2022-10-24T09:46:57.171Z,1.10
2022-10-24T09:49:25.935Z,0.90
2022-10-24T09:52:04.615Z,0.77
2022-10-24T09:54:31.649Z,1.42
2022-10-24T09:57:02.316Z,0.63
2022-10-24T10:02:07.608Z,1.23
2022-10-24T10:04:33.907Z,0.80
2022-10-24T10:07:08.957Z,1.20
2022-10-24T10:09:41.402Z,1.30
2022-10-24T10:12:24.644Z,1.10
2022-10-24T10:14:51.991Z,0.90
2022-10-24T10:17:23.227Z,0.90
2022-10-24T10:19:51.700Z,1.00
2022-10-24T10:22:29.011Z,1.20
2022-10-24T10:24:56.223Z,0.85
2022-10-24T10:27:35.655Z,1.10
2022-10-24T10:30:14.962Z,1.08
2022-10-24T10:32:53.372Z,1.10
2022-10-24T10:35:20.795Z,0.80
2022-10-24T10:38:02.310Z,0.90
2022-10-24T10:40:28.495Z,0.80
2022-10-24T10:42:54.732Z,0.95
2022-10-24T10:45:33.159Z,2.33
2022-10-24T10:48:02.362Z,0.85
2022-10-24T10:50:37.240Z,1.13
2022-10-24T10:53:21.605Z,1.30
2022-10-24T10:56:01.055Z,1.17
2022-10-24T10:58:39.654Z,1.00
2022-10-24T11:01:14.929Z,1.10
2022-10-24T11:03:44.404Z,1.00
2022-10-24T11:06:10.612Z,0.82
2022-10-24T11:08:39.560Z,1.17
2022-10-24T11:11:12.582Z,0.80
2022-10-24T11:13:42.041Z,0.90
2022-10-24T11:16:12.111Z,1.13
2022-10-24T11:18:40.214Z,0.90
2022-10-24T11:21:08.103Z,1.20
2022-10-24T11:23:52.967Z,1.20
2022-10-24T11:26:22.623Z,1.23
2022-10-24T11:29:07.520Z,1.00
2022-10-24T11:31:37.056Z,1.30
2022-10-24T11:34:07.260Z,1.00
2022-10-24T11:36:52.106Z,0.70
2022-10-24T11:39:23.872Z,1.52
2022-10-24T11:41:53.572Z,1.15
2022-10-24T11:44:23.082Z,1.13
2022-10-24T11:46:53.483Z,1.10
2022-10-24T11:49:25.789Z,1.10
2022-10-24T11:51:56.110Z,1.10
2022-10-24T11:54:25.816Z,1.08
2022-10-24T11:56:54.885Z,1.10
2022-10-24T11:59:26.862Z,1.02
2022-10-24T12:01:56.502Z,0.88
2022-10-24T12:04:37.740Z,1.25
2022-10-24T12:07:19.295Z,1.27
2022-10-24T12:09:59.279Z,1.40
2022-10-24T12:12:31.624Z,1.57
2022-10-24T12:15:16.820Z,1.00
2022-10-24T12:17:57.950Z,1.40
2022-10-24T12:20:25.908Z,1.10
2022-10-24T12:22:52.565Z,1.13
2022-10-24T12:25:21.711Z,0.90
2022-10-24T12:27:58.379Z,1.35
2022-10-24T12:30:26.319Z,1.38
2022-10-24T12:32:52.597Z,1.42
2022-10-24T12:35:44.435Z,1.10
2022-10-24T12:38:29.290Z,0.98
2022-10-24T12:41:05.747Z,1.17
2022-10-24T12:43:34.851Z,1.20
2022-10-24T12:46:09.481Z,0.88
2022-10-24T12:48:40.820Z,1.20
2022-10-24T12:51:25.883Z,1.08
2022-10-24T12:54:11.098Z,0.82
2022-10-24T12:56:59.945Z,1.10
2022-10-24T12:59:28.256Z,0.95
2022-10-24T13:02:13.144Z,0.93
2022-10-24T13:04:39.427Z,0.90
2022-10-24T13:07:19.517Z,1.58
2022-10-24T13:09:54.660Z,1.17
2022-10-24T13:12:33.138Z,1.30
2022-10-24T13:15:08.282Z,1.35
2022-10-24T13:17:40.387Z,1.20
2022-10-24T13:20:23.526Z,1.48
2022-10-24T13:22:50.902Z,1.42
2022-10-24T13:25:18.327Z,1.45
2022-10-24T13:27:44.536Z,1.45
2022-10-24T13:30:24.197Z,1.33
2022-10-24T13:32:50.512Z,1.42
2022-10-24T13:35:20.327Z,1.85
2022-10-24T13:37:50.455Z,1.80
2022-10-24T13:40:20.843Z,1.58
2022-10-24T13:42:51.850Z,1.63
2022-10-24T13:45:18.047Z,2.08
2022-10-24T13:47:45.408Z,1.70
2022-10-24T13:50:20.329Z,1.98
2022-10-24T13:52:49.281Z,1.52
2022-10-24T13:55:21.917Z,1.30
2022-10-24T13:58:09.153Z,1.45
2022-10-24T14:00:37.274Z,1.67
2022-10-24T14:03:04.545Z,1.55
2022-10-24T14:05:36.107Z,1.50
2022-10-24T14:08:02.991Z,1.80
2022-10-24T14:10:31.879Z,2.10
2022-10-24T14:12:58.574Z,1.25
2022-10-24T14:15:29.619Z,1.58
2022-10-24T14:18:00.708Z,1.60
2022-10-24T14:20:26.954Z,1.40
2022-10-24T14:22:53.663Z,1.77
2022-10-24T14:25:25.815Z,1.80
2022-10-24T14:27:53.386Z,1.40
2022-10-24T14:30:21.142Z,1.27
2022-10-24T14:32:47.462Z,1.40
2022-10-24T14:35:14.408Z,2.05
2022-10-24T14:37:41.387Z,1.30
2022-10-24T14:40:15.391Z,1.40
2022-10-24T14:42:42.014Z,1.42
2022-10-24T14:45:21.234Z,1.50
2022-10-24T14:47:52.535Z,1.30
2022-10-24T14:50:34.096Z,1.48
2022-10-24T14:53:00.531Z,1.67
2022-10-24T14:55:26.830Z,1.40
2022-10-24T14:57:53.678Z,1.55
2022-10-24T15:00:21.939Z,1.00
2022-10-24T15:02:49.646Z,1.70
2022-10-24T15:05:22.836Z,1.40
2022-10-24T15:08:16.490Z,1.30
2022-10-24T15:10:39.322Z,1.30
2022-10-24T15:13:21.018Z,1.15
2022-10-24T15:15:49.413Z,1.00
2022-10-24T15:18:15.614Z,1.08
2022-10-24T15:20:41.881Z,1.33
2022-10-24T15:23:17.488Z,1.35
2022-10-24T15:25:43.820Z,1.00
2022-10-24T15:28:30.281Z,1.23
2022-10-24T15:30:56.518Z,1.10
2022-10-24T15:33:22.730Z,1.20
2022-10-24T15:35:48.944Z,1.02
2022-10-24T15:38:17.071Z,0.80
2022-10-24T15:40:44.182Z,0.85
2022-10-24T15:43:14.744Z,1.20
2022-10-24T15:45:41.175Z,0.95
2022-10-24T15:48:07.491Z,1.00
2022-10-24T15:50:34.020Z,0.98
2022-10-24T15:53:01.149Z,1.33
2022-10-24T15:55:28.311Z,1.50
2022-10-24T15:57:56.955Z,0.85
2022-10-24T16:00:23.615Z,0.90
2022-10-24T16:02:50.691Z,1.10
2022-10-24T16:05:18.564Z,0.80
2022-10-24T16:07:45.241Z,0.80
2022-10-24T16:10:13.316Z,0.98
2022-10-24T16:12:39.527Z,1.83
2022-10-24T16:15:06.095Z,1.15
2022-10-24T16:17:32.323Z,1.30
2022-10-24T16:19:58.544Z,1.08
2022-10-24T16:22:24.763Z,1.58
2022-10-24T16:24:50.985Z,1.73
2022-10-24T16:27:17.212Z,1.55
2022-10-24T16:29:43.444Z,1.60
2022-10-24T16:32:10.957Z,1.75
2022-10-24T16:34:37.223Z,1.60
2022-10-24T16:37:03.439Z,1.63
2022-10-24T16:39:29.664Z,2.30
2022-10-24T16:41:57.615Z,1.70
2022-10-24T16:44:23.834Z,1.63
2022-10-24T16:46:52.218Z,1.75
2022-10-24T16:49:18.424Z,1.25
2022-10-24T16:51:44.678Z,1.27
2022-10-24T16:54:11.065Z,1.05
2022-10-24T16:56:37.331Z,1.60
2022-10-24T16:59:03.599Z,1.50
2022-10-24T17:01:29.935Z,1.70
2022-10-24T17:03:56.358Z,1.42
2022-10-24T17:06:22.679Z,1.25
2022-10-24T17:08:49.407Z,1.30
2022-10-24T17:11:43.321Z,1.50
2022-10-24T17:14:01.868Z,1.50
2022-10-24T17:16:28.195Z,1.50
2022-10-24T17:19:05.461Z,1.23
2022-10-24T17:21:38.756Z,1.75
2022-10-24T17:24:05.159Z,1.70
2022-10-24T17:26:31.583Z,1.77
2022-10-24T17:28:57.903Z,1.63
2022-10-24T17:31:24.242Z,1.55
2022-10-24T17:33:50.563Z,2.20
2022-10-24T17:36:21.195Z,1.80
2022-10-24T17:41:24.602Z,1.38
2022-10-24T17:43:50.999Z,1.73
2022-10-24T17:46:17.638Z,1.70
2022-10-24T17:48:43.901Z,1.65
2022-10-24T17:51:11.218Z,1.80
2022-10-24T17:53:37.696Z,1.92
2022-10-24T17:56:04.128Z,1.92
2022-10-24T17:58:30.383Z,2.05
2022-10-24T18:00:56.685Z,3.67
2022-10-24T18:03:23.001Z,2.50
2022-10-24T18:05:49.292Z,1.80
2022-10-24T18:08:16.286Z,1.85
2022-10-24T18:10:42.559Z,2.00
2022-10-24T18:13:08.854Z,2.33
2022-10-24T18:15:35.647Z,2.20
2022-10-24T18:18:01.859Z,2.25
2022-10-24T18:20:28.207Z,2.20
2022-10-24T18:22:54.454Z,1.95
2022-10-24T18:25:22.986Z,1.92
2022-10-24T18:27:50.204Z,2.30
2022-10-24T18:30:16.511Z,2.60
2022-10-24T18:32:42.891Z,2.78
2022-10-24T18:35:09.202Z,2.53
2022-10-24T18:37:35.736Z,3.00
2022-10-24T18:40:02.862Z,3.42
2022-10-24T18:42:48.110Z,2.70
2022-10-24T18:45:19.031Z,2.67
2022-10-24T18:50:12.924Z,3.35
2022-10-24T18:52:48.929Z,3.25
2022-10-24T18:55:20.488Z,3.00
2022-10-24T18:57:47.833Z,3.78
2022-10-24T19:00:15.932Z,3.33
2022-10-24T19:05:17.669Z,3.00
2022-10-24T19:07:44.886Z,3.25
2022-10-24T19:10:15.668Z,3.30
2022-10-24T19:12:44.526Z,3.42
2022-10-24T19:15:11.574Z,3.17
2022-10-24T19:17:37.851Z,4.00
2022-10-24T19:20:04.293Z,3.80
2022-10-24T19:22:31.348Z,2.85
2022-10-24T19:24:57.924Z,2.90
2022-10-24T19:27:24.817Z,3.22
2022-10-24T19:29:51.039Z,3.17
2022-10-24T19:32:17.427Z,3.13
2022-10-24T19:34:43.736Z,3.33
2022-10-24T19:37:11.496Z,3.13
2022-10-24T19:39:37.729Z,2.97
2022-10-24T19:42:04.096Z,2.80
2022-10-24T19:44:30.324Z,3.03
2022-10-24T19:46:56.529Z,3.30
2022-10-24T19:49:22.770Z,3.30
2022-10-24T19:51:50.320Z,3.08
2022-10-24T19:54:16.559Z,3.00
2022-10-24T19:56:42.840Z,3.05
2022-10-24T19:59:12.110Z,2.80
2022-10-24T20:01:38.608Z,2.70
2022-10-24T20:04:05.083Z,3.28
2022-10-24T20:06:31.514Z,3.10
2022-10-24T20:08:57.723Z,3.50
2022-10-24T20:11:24.066Z,2.95
2022-10-24T20:13:50.456Z,3.08
2022-10-24T20:16:17.028Z,3.28
2022-10-24T20:18:43.945Z,3.30
2022-10-24T20:21:11.557Z,3.30
2022-10-24T20:23:37.817Z,3.33
2022-10-24T20:26:05.852Z,3.00
2022-10-24T20:28:36.600Z,3.03
2022-10-24T20:33:29.029Z,3.00
2022-10-24T20:35:58.176Z,3.30
2022-10-24T20:38:24.387Z,3.17
2022-10-24T20:40:50.616Z,3.20
2022-10-24T20:43:17.282Z,3.80
2022-10-24T20:45:43.603Z,3.42
2022-10-24T20:48:10.062Z,3.90
2022-10-24T20:50:36.402Z,3.28
2022-10-24T20:53:03.418Z,3.65
2022-10-24T20:55:43.771Z,4.00
2022-10-24T20:58:13.758Z,3.28
2022-10-24T21:03:08.444Z,3.53
2022-10-24T21:05:35.056Z,3.80
2022-10-24T21:08:01.299Z,3.50
2022-10-24T21:10:27.513Z,3.65
2022-10-24T21:12:54.168Z,4.53
2022-10-24T21:15:20.778Z,3.75
2022-10-24T21:17:47.165Z,3.78
2022-10-24T21:20:13.576Z,3.90
2022-10-24T21:22:39.807Z,3.40
2022-10-24T21:25:06.272Z,3.33
2022-10-24T21:27:32.571Z,3.33
2022-10-24T21:29:58.808Z,4.10
2022-10-24T21:32:25.032Z,4.47
2022-10-24T21:34:51.297Z,3.83
2022-10-24T21:37:17.592Z,4.15
2022-10-24T21:39:43.824Z,3.83
2022-10-24T21:42:10.136Z,4.13
2022-10-24T21:44:36.384Z,3.75
2022-10-24T21:47:02.611Z,3.58
2022-10-24T21:49:28.848Z,3.83
2022-10-24T21:51:55.092Z,3.78
2022-10-24T21:54:22.637Z,3.78
2022-10-24T21:56:48.893Z,3.70
2022-10-24T21:59:16.342Z,3.55
2022-10-24T22:01:43.277Z,3.78
2022-10-24T22:04:10.608Z,3.70
2022-10-24T22:06:36.947Z,3.25
2022-10-24T22:09:04.251Z,3.65
2022-10-24T22:11:31.910Z,3.75
2022-10-24T22:13:58.547Z,3.85
2022-10-24T22:16:25.535Z,3.83
2022-10-24T22:18:52.029Z,3.67
2022-10-24T22:21:28.873Z,4.05
2022-10-24T22:23:56.534Z,3.78
2022-10-24T22:26:23.384Z,3.78
2022-10-24T22:28:49.661Z,3.70
2022-10-24T22:31:16.414Z,3.50
2022-10-24T22:33:43.098Z,3.47
2022-10-24T22:36:21.739Z,4.03
2022-10-24T22:38:51.187Z,4.30
2022-10-24T22:41:17.567Z,3.83
2022-10-24T22:43:44.187Z,3.35
2022-10-24T22:46:19.526Z,3.38
2022-10-24T22:48:48.677Z,3.13
2022-10-24T22:51:17.264Z,3.25
2022-10-24T22:53:43.588Z,3.78
2022-10-24T22:56:19.599Z,3.67
2022-10-24T22:58:46.491Z,3.15
2022-10-24T23:01:18.683Z,3.40
2022-10-24T23:04:03.681Z,3.50
2022-10-24T23:06:45.860Z,3.38
2022-10-24T23:09:12.375Z,2.75
2022-10-24T23:11:39.168Z,3.47
2022-10-24T23:14:05.708Z,3.63
2022-10-24T23:16:35.808Z,3.55
2022-10-24T23:19:05.969Z,3.13
2022-10-24T23:21:41.483Z,3.47
2022-10-24T23:24:17.910Z,3.85
2022-10-24T23:26:44.161Z,3.55
2022-10-24T23:29:15.130Z,3.72
2022-10-24T23:31:41.468Z,3.78
2022-10-24T23:34:09.097Z,4.25
2022-10-24T23:36:35.480Z,5.38
2022-10-24T23:39:01.827Z,5.38
2022-10-24T23:41:28.191Z,5.63
2022-10-24T23:43:54.463Z,5.95
2022-10-24T23:46:30.578Z,5.18
2022-10-24T23:49:06.597Z,5.63
2022-10-24T23:51:45.662Z,5.60
2022-10-24T23:54:12.469Z,4.93
2022-10-24T23:56:39.157Z,5.32
2022-10-24T23:59:05.707Z,4.75
